sensor_id;sensor_type;location;lat;lon;timestamp;temperature;humidity
46492;DHT22;32206;51.446;6.792;2022-09-13T00:00:19;19.90;99.90
46492;DHT22;32206;51.446;6.792;2022-09-13T00:02:44;19.80;99.90
46492;DHT22;32206;51.446;6.792;2022-09-13T00:05:10;19.80;99.90
46492;DHT22;32206;51.446;6.792;2022-09-13T00:07:35;19.70;99.90
46492;DHT22;32206;51.446;6.792;2022-09-13T00:10:01;19.70;99.90
46492;DHT22;32206;51.446;6.792;2022-09-13T00:12:26;19.70;99.90
46492;DHT22;32206;51.446;6.792;2022-09-13T00:14:52;19.70;99.90
46492;DHT22;32206;51.446;6.792;2022-09-13T00:17:18;19.70;99.90
46492;DHT22;32206;51.446;6.792;2022-09-13T00:19:43;19.70;99.90
46492;DHT22;32206;51.446;6.792;2022-09-13T00:22:09;19.60;99.90
46492;DHT22;32206;51.446;6.792;2022-09-13T00:24:34;19.60;99.90
46492;DHT22;32206;51.446;6.792;2022-09-13T00:27:01;19.60;99.90
46492;DHT22;32206;51.446;6.792;2022-09-13T00:29:27;19.60;99.90
46492;DHT22;32206;51.446;6.792;2022-09-13T00:31:53;19.60;99.90
46492;DHT22;32206;51.446;6.792;2022-09-13T00:34:19;19.60;99.90
46492;DHT22;32206;51.446;6.792;2022-09-13T00:36:44;19.50;99.90
46492;DHT22;32206;51.446;6.792;2022-09-13T00:39:11;19.50;99.90
46492;DHT22;32206;51.446;6.792;2022-09-13T00:41:37;19.70;99.90
46492;DHT22;32206;51.446;6.792;2022-09-13T00:44:03;19.60;99.90
46492;DHT22;32206;51.446;6.792;2022-09-13T00:46:42;19.60;99.90
46492;DHT22;32206;51.446;6.792;2022-09-13T00:51:43;19.60;99.90
46492;DHT22;32206;51.446;6.792;2022-09-13T00:54:11;19.60;99.90
46492;DHT22;32206;51.446;6.792;2022-09-13T00:56:46;19.60;99.90
46492;DHT22;32206;51.446;6.792;2022-09-13T00:59:17;19.60;99.90
46492;DHT22;32206;51.446;6.792;2022-09-13T01:01:48;19.60;99.90
46492;DHT22;32206;51.446;6.792;2022-09-13T01:04:17;19.50;99.90
46492;DHT22;32206;51.446;6.792;2022-09-13T01:06:44;19.50;99.90
46492;DHT22;32206;51.446;6.792;2022-09-13T01:09:11;19.50;99.90
46492;DHT22;32206;51.446;6.792;2022-09-13T01:11:47;19.50;99.90
46492;DHT22;32206;51.446;6.792;2022-09-13T01:14:17;19.50;99.90
46492;DHT22;32206;51.446;6.792;2022-09-13T01:16:43;19.40;99.90
46492;DHT22;32206;51.446;6.792;2022-09-13T01:19:08;19.40;99.90
46492;DHT22;32206;51.446;6.792;2022-09-13T01:30:17;19.40;99.90
46492;DHT22;32206;51.446;6.792;2022-09-13T01:44:23;19.20;99.90
46492;DHT22;32206;51.446;6.792;2022-09-13T01:52:00;19.20;99.90
46492;DHT22;32206;51.446;6.792;2022-09-13T01:57:24;19.20;99.90
46492;DHT22;32206;51.446;6.792;2022-09-13T01:59:58;19.10;99.90
46492;DHT22;32206;51.446;6.792;2022-09-13T02:02:33;19.10;99.90
46492;DHT22;32206;51.446;6.792;2022-09-13T02:05:18;19.10;1.00
46492;DHT22;32206;51.446;6.792;2022-09-13T02:07:59;19.10;1.00
46492;DHT22;32206;51.446;6.792;2022-09-13T02:10:33;19.00;1.00
46492;DHT22;32206;51.446;6.792;2022-09-13T02:13:04;19.10;1.00
46492;DHT22;32206;51.446;6.792;2022-09-13T02:15:39;19.10;1.00
46492;DHT22;32206;51.446;6.792;2022-09-13T02:18:16;19.10;1.00
46492;DHT22;32206;51.446;6.792;2022-09-13T02:20:44;19.00;1.00
46492;DHT22;32206;51.446;6.792;2022-09-13T02:23:23;19.10;1.00
46492;DHT22;32206;51.446;6.792;2022-09-13T02:25:52;19.10;1.00
46492;DHT22;32206;51.446;6.792;2022-09-13T02:28:22;19.10;1.00
46492;DHT22;32206;51.446;6.792;2022-09-13T02:30:52;19.10;1.00
46492;DHT22;32206;51.446;6.792;2022-09-13T02:33:25;19.10;1.00
46492;DHT22;32206;51.446;6.792;2022-09-13T02:35:55;19.10;1.00
46492;DHT22;32206;51.446;6.792;2022-09-13T02:41:04;19.10;1.00
46492;DHT22;32206;51.446;6.792;2022-09-13T02:43:36;19.00;1.00
46492;DHT22;32206;51.446;6.792;2022-09-13T02:46:29;19.00;1.00
46492;DHT22;32206;51.446;6.792;2022-09-13T02:58:06;18.90;1.00
46492;DHT22;32206;51.446;6.792;2022-09-13T03:00:33;19.00;1.00
46492;DHT22;32206;51.446;6.792;2022-09-13T03:03:03;18.90;1.00
46492;DHT22;32206;51.446;6.792;2022-09-13T03:05:29;18.90;1.00
46492;DHT22;32206;51.446;6.792;2022-09-13T03:07:56;18.90;1.00
46492;DHT22;32206;51.446;6.792;2022-09-13T03:10:25;18.90;1.00
46492;DHT22;32206;51.446;6.792;2022-09-13T03:13:02;18.90;1.00
46492;DHT22;32206;51.446;6.792;2022-09-13T03:15:57;19.00;1.00
46492;DHT22;32206;51.446;6.792;2022-09-13T03:26:22;19.00;1.00
46492;DHT22;32206;51.446;6.792;2022-09-13T03:29:08;19.10;1.00
46492;DHT22;32206;51.446;6.792;2022-09-13T03:31:51;18.90;1.00
46492;DHT22;32206;51.446;6.792;2022-09-13T03:37:02;18.80;1.00
46492;DHT22;32206;51.446;6.792;2022-09-13T03:39:46;18.80;1.00
46492;DHT22;32206;51.446;6.792;2022-09-13T03:42:25;18.70;1.00
46492;DHT22;32206;51.446;6.792;2022-09-13T03:44:55;18.70;1.00
46492;DHT22;32206;51.446;6.792;2022-09-13T03:47:23;18.60;1.00
46492;DHT22;32206;51.446;6.792;2022-09-13T03:49:50;18.60;1.00
46492;DHT22;32206;51.446;6.792;2022-09-13T03:52:17;18.60;1.00
46492;DHT22;32206;51.446;6.792;2022-09-13T03:54:43;18.60;1.00
46492;DHT22;32206;51.446;6.792;2022-09-13T03:57:11;18.60;3.40
46492;DHT22;32206;51.446;6.792;2022-09-13T03:59:42;18.60;1.00
46492;DHT22;32206;51.446;6.792;2022-09-13T04:02:09;18.50;1.00
46492;DHT22;32206;51.446;6.792;2022-09-13T04:04:37;18.50;1.00
46492;DHT22;32206;51.446;6.792;2022-09-13T04:07:03;18.50;1.00
46492;DHT22;32206;51.446;6.792;2022-09-13T04:09:31;18.50;1.00
46492;DHT22;32206;51.446;6.792;2022-09-13T04:11:57;18.50;1.00
46492;DHT22;32206;51.446;6.792;2022-09-13T04:14:23;18.50;1.10
46492;DHT22;32206;51.446;6.792;2022-09-13T04:16:54;18.40;1.00
46492;DHT22;32206;51.446;6.792;2022-09-13T04:19:20;18.40;1.00
46492;DHT22;32206;51.446;6.792;2022-09-13T04:21:48;18.40;1.00
46492;DHT22;32206;51.446;6.792;2022-09-13T04:24:14;18.40;1.00
46492;DHT22;32206;51.446;6.792;2022-09-13T04:26:40;18.40;1.00
46492;DHT22;32206;51.446;6.792;2022-09-13T04:29:05;18.40;1.00
46492;DHT22;32206;51.446;6.792;2022-09-13T04:31:31;18.40;2.30
46492;DHT22;32206;51.446;6.792;2022-09-13T04:33:56;18.40;7.30
46492;DHT22;32206;51.446;6.792;2022-09-13T04:36:24;18.40;4.40
46492;DHT22;32206;51.446;6.792;2022-09-13T04:38:50;18.40;12.10
46492;DHT22;32206;51.446;6.792;2022-09-13T04:41:15;18.40;11.70
46492;DHT22;32206;51.446;6.792;2022-09-13T04:43:42;18.40;9.10
46492;DHT22;32206;51.446;6.792;2022-09-13T04:46:07;18.40;13.30
46492;DHT22;32206;51.446;6.792;2022-09-13T04:48:33;18.40;18.90
46492;DHT22;32206;51.446;6.792;2022-09-13T04:51:03;18.50;14.70
46492;DHT22;32206;51.446;6.792;2022-09-13T04:53:30;18.40;18.00
46492;DHT22;32206;51.446;6.792;2022-09-13T04:56:02;18.40;24.50
46492;DHT22;32206;51.446;6.792;2022-09-13T04:58:29;18.40;21.00
46492;DHT22;32206;51.446;6.792;2022-09-13T05:01:05;18.40;18.20
46492;DHT22;32206;51.446;6.792;2022-09-13T05:03:32;18.40;21.50
46492;DHT22;32206;51.446;6.792;2022-09-13T05:06:09;18.40;9.10
46492;DHT22;32206;51.446;6.792;2022-09-13T05:08:35;18.40;14.80
46492;DHT22;32206;51.446;6.792;2022-09-13T05:11:02;18.50;13.30
46492;DHT22;32206;51.446;6.792;2022-09-13T05:13:28;18.40;17.70
46492;DHT22;32206;51.446;6.792;2022-09-13T05:15:55;18.40;18.50
46492;DHT22;32206;51.446;6.792;2022-09-13T05:18:21;18.50;21.20
46492;DHT22;32206;51.446;6.792;2022-09-13T05:20:47;18.40;19.50
46492;DHT22;32206;51.446;6.792;2022-09-13T05:23:13;18.50;22.10
46492;DHT22;32206;51.446;6.792;2022-09-13T05:25:38;18.40;20.30
46492;DHT22;32206;51.446;6.792;2022-09-13T05:28:04;18.40;23.00
46492;DHT22;32206;51.446;6.792;2022-09-13T05:30:29;18.40;21.30
46492;DHT22;32206;51.446;6.792;2022-09-13T05:32:55;18.40;23.60
46492;DHT22;32206;51.446;6.792;2022-09-13T05:35:22;18.40;27.10
46492;DHT22;32206;51.446;6.792;2022-09-13T05:37:48;18.40;28.30
46492;DHT22;32206;51.446;6.792;2022-09-13T05:40:14;18.40;27.50
46492;DHT22;32206;51.446;6.792;2022-09-13T05:42:39;18.40;24.40
46492;DHT22;32206;51.446;6.792;2022-09-13T05:45:05;18.40;25.70
46492;DHT22;32206;51.446;6.792;2022-09-13T05:47:31;18.40;32.50
46492;DHT22;32206;51.446;6.792;2022-09-13T05:49:57;18.60;29.10
46492;DHT22;32206;51.446;6.792;2022-09-13T05:52:22;18.40;32.00
46492;DHT22;32206;51.446;6.792;2022-09-13T05:54:48;18.40;28.90
46492;DHT22;32206;51.446;6.792;2022-09-13T05:57:14;18.40;26.90
46492;DHT22;32206;51.446;6.792;2022-09-13T05:59:39;18.40;27.60
46492;DHT22;32206;51.446;6.792;2022-09-13T06:02:07;18.50;24.90
46492;DHT22;32206;51.446;6.792;2022-09-13T06:04:34;18.20;26.10
46492;DHT22;32206;51.446;6.792;2022-09-13T06:07:00;18.50;31.80
46492;DHT22;32206;51.446;6.792;2022-09-13T06:09:25;18.40;28.20
46492;DHT22;32206;51.446;6.792;2022-09-13T06:11:54;18.50;29.30
46492;DHT22;32206;51.446;6.792;2022-09-13T06:14:20;18.50;29.00
46492;DHT22;32206;51.446;6.792;2022-09-13T06:16:45;18.50;27.00
46492;DHT22;32206;51.446;6.792;2022-09-13T06:19:11;18.50;24.40
46492;DHT22;32206;51.446;6.792;2022-09-13T06:21:36;18.50;24.40
46492;DHT22;32206;51.446;6.792;2022-09-13T06:24:02;18.50;25.80
46492;DHT22;32206;51.446;6.792;2022-09-13T06:26:28;18.50;30.10
46492;DHT22;32206;51.446;6.792;2022-09-13T06:28:56;18.50;27.30
46492;DHT22;32206;51.446;6.792;2022-09-13T06:31:24;18.30;24.90
46492;DHT22;32206;51.446;6.792;2022-09-13T06:33:55;18.60;25.60
46492;DHT22;32206;51.446;6.792;2022-09-13T06:36:22;18.50;23.20
46492;DHT22;32206;51.446;6.792;2022-09-13T06:38:48;18.60;21.60
46492;DHT22;32206;51.446;6.792;2022-09-13T06:41:19;18.60;21.40
46492;DHT22;32206;51.446;6.792;2022-09-13T06:43:46;18.60;20.90
46492;DHT22;32206;51.446;6.792;2022-09-13T06:46:14;18.80;15.30
46492;DHT22;32206;51.446;6.792;2022-09-13T06:48:42;18.70;20.70
46492;DHT22;32206;51.446;6.792;2022-09-13T06:51:17;18.70;18.80
46492;DHT22;32206;51.446;6.792;2022-09-13T06:53:44;18.70;20.00
46492;DHT22;32206;51.446;6.792;2022-09-13T06:56:15;18.70;19.20
46492;DHT22;32206;51.446;6.792;2022-09-13T06:58:43;18.80;16.80
46492;DHT22;32206;51.446;6.792;2022-09-13T07:01:15;18.90;18.10
46492;DHT22;32206;51.446;6.792;2022-09-13T07:03:44;18.90;16.10
46492;DHT22;32206;51.446;6.792;2022-09-13T07:06:14;18.90;13.80
46492;DHT22;32206;51.446;6.792;2022-09-13T07:08:41;18.90;11.10
46492;DHT22;32206;51.446;6.792;2022-09-13T07:11:09;19.00;11.50
46492;DHT22;32206;51.446;6.792;2022-09-13T07:13:35;19.00;3.90
46492;DHT22;32206;51.446;6.792;2022-09-13T07:16:06;19.00;6.00
46492;DHT22;32206;51.446;6.792;2022-09-13T07:18:32;19.00;7.40
46492;DHT22;32206;51.446;6.792;2022-09-13T07:21:05;19.10;3.20
46492;DHT22;32206;51.446;6.792;2022-09-13T07:23:35;19.10;8.70
46492;DHT22;32206;51.446;6.792;2022-09-13T07:26:02;19.10;1.00
46492;DHT22;32206;51.446;6.792;2022-09-13T07:28:37;19.20;1.00
46492;DHT22;32206;51.446;6.792;2022-09-13T07:31:12;19.40;1.00
46492;DHT22;32206;51.446;6.792;2022-09-13T07:33:39;19.30;1.00
46492;DHT22;32206;51.446;6.792;2022-09-13T07:36:06;19.30;1.00
46492;DHT22;32206;51.446;6.792;2022-09-13T07:38:35;19.30;1.00
46492;DHT22;32206;51.446;6.792;2022-09-13T07:41:02;19.40;1.00
46492;DHT22;32206;51.446;6.792;2022-09-13T07:43:34;19.50;1.00
46492;DHT22;32206;51.446;6.792;2022-09-13T07:46:24;19.50;1.00
46492;DHT22;32206;51.446;6.792;2022-09-13T07:48:52;19.50;1.00
46492;DHT22;32206;51.446;6.792;2022-09-13T07:51:20;19.50;1.00
46492;DHT22;32206;51.446;6.792;2022-09-13T07:53:48;19.70;1.00
46492;DHT22;32206;51.446;6.792;2022-09-13T07:56:15;19.60;1.00
46492;DHT22;32206;51.446;6.792;2022-09-13T07:58:43;19.80;1.00
46492;DHT22;32206;51.446;6.792;2022-09-13T08:01:39;19.70;1.00
46492;DHT22;32206;51.446;6.792;2022-09-13T08:04:13;19.70;1.00
46492;DHT22;32206;51.446;6.792;2022-09-13T08:06:40;19.80;1.00
46492;DHT22;32206;51.446;6.792;2022-09-13T08:09:07;19.80;1.00
46492;DHT22;32206;51.446;6.792;2022-09-13T08:14:01;20.00;1.00
46492;DHT22;32206;51.446;6.792;2022-09-13T08:16:28;20.00;1.00
46492;DHT22;32206;51.446;6.792;2022-09-13T08:18:57;20.10;1.00
46492;DHT22;32206;51.446;6.792;2022-09-13T08:21:23;20.20;1.00
46492;DHT22;32206;51.446;6.792;2022-09-13T08:23:54;20.20;1.00
46492;DHT22;32206;51.446;6.792;2022-09-13T08:26:20;20.30;1.00
46492;DHT22;32206;51.446;6.792;2022-09-13T08:28:46;20.40;1.00
46492;DHT22;32206;51.446;6.792;2022-09-13T08:31:14;20.40;1.00
46492;DHT22;32206;51.446;6.792;2022-09-13T08:33:46;20.50;1.00
46492;DHT22;32206;51.446;6.792;2022-09-13T08:36:14;20.60;1.00
46492;DHT22;32206;51.446;6.792;2022-09-13T08:38:52;20.60;99.90
46492;DHT22;32206;51.446;6.792;2022-09-13T08:41:34;20.70;1.00
46492;DHT22;32206;51.446;6.792;2022-09-13T08:44:06;20.80;1.00
46492;DHT22;32206;51.446;6.792;2022-09-13T08:46:40;20.80;1.00
46492;DHT22;32206;51.446;6.792;2022-09-13T08:54:11;20.90;1.00
46492;DHT22;32206;51.446;6.792;2022-09-13T09:05:19;21.20;99.90
46492;DHT22;32206;51.446;6.792;2022-09-13T09:08:14;21.30;99.90
46492;DHT22;32206;51.446;6.792;2022-09-13T09:10:48;21.40;99.90
46492;DHT22;32206;51.446;6.792;2022-09-13T09:15:46;21.60;99.90
46492;DHT22;32206;51.446;6.792;2022-09-13T09:18:26;21.60;99.90
46492;DHT22;32206;51.446;6.792;2022-09-13T09:20:55;21.70;99.90
46492;DHT22;32206;51.446;6.792;2022-09-13T09:23:40;21.80;99.90
46492;DHT22;32206;51.446;6.792;2022-09-13T09:26:15;21.90;99.90
46492;DHT22;32206;51.446;6.792;2022-09-13T09:28:42;22.00;99.90
46492;DHT22;32206;51.446;6.792;2022-09-13T09:31:14;22.00;99.90
46492;DHT22;32206;51.446;6.792;2022-09-13T09:34:02;22.10;99.90
46492;DHT22;32206;51.446;6.792;2022-09-13T09:36:43;22.20;99.90
46492;DHT22;32206;51.446;6.792;2022-09-13T09:39:12;22.20;99.90
46492;DHT22;32206;51.446;6.792;2022-09-13T09:41:38;22.30;99.90
46492;DHT22;32206;51.446;6.792;2022-09-13T09:44:27;22.30;99.90
46492;DHT22;32206;51.446;6.792;2022-09-13T09:47:15;22.40;28.20
46492;DHT22;32206;51.446;6.792;2022-09-13T09:49:52;22.70;99.90
46492;DHT22;32206;51.446;6.792;2022-09-13T09:55:28;22.70;99.90
46492;DHT22;32206;51.446;6.792;2022-09-13T09:58:05;22.80;1.00
46492;DHT22;32206;51.446;6.792;2022-09-13T10:00:33;22.80;99.90
46492;DHT22;32206;51.446;6.792;2022-09-13T10:03:06;23.00;1.00
46492;DHT22;32206;51.446;6.792;2022-09-13T10:05:34;23.10;99.90
46492;DHT22;32206;51.446;6.792;2022-09-13T10:08:02;23.30;99.90
46492;DHT22;32206;51.446;6.792;2022-09-13T10:10:39;23.30;99.90
46492;DHT22;32206;51.446;6.792;2022-09-13T10:13:13;23.40;99.90
46492;DHT22;32206;51.446;6.792;2022-09-13T10:18:31;23.60;1.00
46492;DHT22;32206;51.446;6.792;2022-09-13T10:21:26;23.60;1.00
46492;DHT22;32206;51.446;6.792;2022-09-13T10:24:15;23.70;99.90
46492;DHT22;32206;51.446;6.792;2022-09-13T10:26:42;23.80;1.00
46492;DHT22;32206;51.446;6.792;2022-09-13T10:29:13;23.90;1.00
46492;DHT22;32206;51.446;6.792;2022-09-13T10:31:43;23.90;99.90
46492;DHT22;32206;51.446;6.792;2022-09-13T10:36:54;23.90;1.00
46492;DHT22;32206;51.446;6.792;2022-09-13T10:39:23;23.90;99.90
46492;DHT22;32206;51.446;6.792;2022-09-13T10:46:55;24.20;1.00
46492;DHT22;32206;51.446;6.792;2022-09-13T10:49:38;24.30;1.00
46492;DHT22;32206;51.446;6.792;2022-09-13T10:52:44;24.40;99.90
46492;DHT22;32206;51.446;6.792;2022-09-13T10:57:46;24.60;92.40
46492;DHT22;32206;51.446;6.792;2022-09-13T11:00:20;24.60;99.90
46492;DHT22;32206;51.446;6.792;2022-09-13T11:13:56;25.60;1.00
46492;DHT22;32206;51.446;6.792;2022-09-13T11:24:11;26.00;99.90
46492;DHT22;32206;51.446;6.792;2022-09-13T11:37:23;26.70;1.00
46492;DHT22;32206;51.446;6.792;2022-09-13T11:55:10;27.40;1.00
46492;DHT22;32206;51.446;6.792;2022-09-13T11:57:42;27.40;99.90
46492;DHT22;32206;51.446;6.792;2022-09-13T12:00:26;27.50;1.00
46492;DHT22;32206;51.446;6.792;2022-09-13T12:05:35;27.80;1.90
46492;DHT22;32206;51.446;6.792;2022-09-13T12:08:15;28.00;1.00
46492;DHT22;32206;51.446;6.792;2022-09-13T12:13:31;28.20;33.60
46492;DHT22;32206;51.446;6.792;2022-09-13T12:16:07;28.40;99.90
46492;DHT22;32206;51.446;6.792;2022-09-13T12:18:42;28.50;99.90
46492;DHT22;32206;51.446;6.792;2022-09-13T12:21:09;28.60;99.90
46492;DHT22;32206;51.446;6.792;2022-09-13T12:23:45;28.60;99.90
46492;DHT22;32206;51.446;6.792;2022-09-13T12:29:02;28.70;99.90
46492;DHT22;32206;51.446;6.792;2022-09-13T12:31:30;28.70;99.90
46492;DHT22;32206;51.446;6.792;2022-09-13T12:33:56;28.80;99.90
46492;DHT22;32206;51.446;6.792;2022-09-13T12:42:05;28.70;99.90
46492;DHT22;32206;51.446;6.792;2022-09-13T12:53:20;28.80;99.90
46492;DHT22;32206;51.446;6.792;2022-09-13T13:01:20;28.50;99.90
46492;DHT22;32206;51.446;6.792;2022-09-13T13:04:12;28.40;99.90
46492;DHT22;32206;51.446;6.792;2022-09-13T13:06:50;28.30;99.90
46492;DHT22;32206;51.446;6.792;2022-09-13T13:09:39;28.20;99.90
46492;DHT22;32206;51.446;6.792;2022-09-13T13:12:12;28.10;99.90
46492;DHT22;32206;51.446;6.792;2022-09-13T13:14:49;28.00;99.90
46492;DHT22;32206;51.446;6.792;2022-09-13T13:23:35;28.00;99.90
46492;DHT22;32206;51.446;6.792;2022-09-13T13:26:41;28.10;99.90
46492;DHT22;32206;51.446;6.792;2022-09-13T13:29:27;28.10;99.90
46492;DHT22;32206;51.446;6.792;2022-09-13T13:34:47;28.10;99.90
46492;DHT22;32206;51.446;6.792;2022-09-13T13:40:08;28.00;99.90
46492;DHT22;32206;51.446;6.792;2022-09-13T13:42:35;28.00;99.90
46492;DHT22;32206;51.446;6.792;2022-09-13T13:45:15;27.90;99.90
46492;DHT22;32206;51.446;6.792;2022-09-13T13:48:05;28.00;99.90
46492;DHT22;32206;51.446;6.792;2022-09-13T13:50:31;28.00;99.90
46492;DHT22;32206;51.446;6.792;2022-09-13T13:52:59;28.00;99.90
46492;DHT22;32206;51.446;6.792;2022-09-13T13:55:43;27.90;99.90
46492;DHT22;32206;51.446;6.792;2022-09-13T13:58:23;28.00;99.90
46492;DHT22;32206;51.446;6.792;2022-09-13T14:00:51;28.10;99.90
46492;DHT22;32206;51.446;6.792;2022-09-13T14:03:51;28.10;99.90
46492;DHT22;32206;51.446;6.792;2022-09-13T14:09:37;27.90;99.90
46492;DHT22;32206;51.446;6.792;2022-09-13T14:20:26;27.90;99.90
46492;DHT22;32206;51.446;6.792;2022-09-13T14:23:11;27.80;99.90
46492;DHT22;32206;51.446;6.792;2022-09-13T14:25:37;27.80;99.90
46492;DHT22;32206;51.446;6.792;2022-09-13T14:28:05;27.70;99.90
46492;DHT22;32206;51.446;6.792;2022-09-13T14:30:34;27.70;99.90
46492;DHT22;32206;51.446;6.792;2022-09-13T14:33:01;27.50;99.90
46492;DHT22;32206;51.446;6.792;2022-09-13T14:35:30;27.50;1.00
46492;DHT22;32206;51.446;6.792;2022-09-13T14:38:22;27.50;99.90
46492;DHT22;32206;51.446;6.792;2022-09-13T14:40:58;27.50;99.90
46492;DHT22;32206;51.446;6.792;2022-09-13T14:43:26;27.40;1.00
46492;DHT22;32206;51.446;6.792;2022-09-13T14:46:06;27.40;1.00
46492;DHT22;32206;51.446;6.792;2022-09-13T14:48:41;27.40;1.00
46492;DHT22;32206;51.446;6.792;2022-09-13T14:51:18;27.40;1.00
46492;DHT22;32206;51.446;6.792;2022-09-13T14:53:47;27.50;1.00
46492;DHT22;32206;51.446;6.792;2022-09-13T14:56:17;27.60;1.00
46492;DHT22;32206;51.446;6.792;2022-09-13T14:58:51;27.70;1.00
46492;DHT22;32206;51.446;6.792;2022-09-13T15:01:25;27.60;1.00
46492;DHT22;32206;51.446;6.792;2022-09-13T15:03:55;27.60;99.90
46492;DHT22;32206;51.446;6.792;2022-09-13T15:06:27;27.50;18.90
46492;DHT22;32206;51.446;6.792;2022-09-13T15:09:29;27.40;99.90
46492;DHT22;32206;51.446;6.792;2022-09-13T15:14:34;27.20;99.90
46492;DHT22;32206;51.446;6.792;2022-09-13T15:17:09;27.20;1.00
46492;DHT22;32206;51.446;6.792;2022-09-13T15:22:22;27.20;1.00
46492;DHT22;32206;51.446;6.792;2022-09-13T15:24:54;27.10;99.90
46492;DHT22;32206;51.446;6.792;2022-09-13T15:29:59;27.00;99.90
46492;DHT22;32206;51.446;6.792;2022-09-13T15:32:39;26.90;1.00
46492;DHT22;32206;51.446;6.792;2022-09-13T15:35:38;26.80;1.00
46492;DHT22;32206;51.446;6.792;2022-09-13T15:38:29;26.70;1.00
46492;DHT22;32206;51.446;6.792;2022-09-13T15:41:17;26.60;99.90
46492;DHT22;32206;51.446;6.792;2022-09-13T15:43:43;26.50;99.90
46492;DHT22;32206;51.446;6.792;2022-09-13T15:46:14;26.50;99.90
46492;DHT22;32206;51.446;6.792;2022-09-13T15:48:45;26.50;1.00
46492;DHT22;32206;51.446;6.792;2022-09-13T15:51:14;26.50;99.90
46492;DHT22;32206;51.446;6.792;2022-09-13T15:53:41;26.40;1.00
46492;DHT22;32206;51.446;6.792;2022-09-13T15:56:08;26.40;99.90
46492;DHT22;32206;51.446;6.792;2022-09-13T15:58:37;26.30;99.90
46492;DHT22;32206;51.446;6.792;2022-09-13T16:01:03;26.20;99.90
46492;DHT22;32206;51.446;6.792;2022-09-13T16:03:29;26.10;95.00
46492;DHT22;32206;51.446;6.792;2022-09-13T16:05:56;26.10;1.00
46492;DHT22;32206;51.446;6.792;2022-09-13T16:08:22;26.10;99.90
46492;DHT22;32206;51.446;6.792;2022-09-13T16:10:48;26.10;27.50
46492;DHT22;32206;51.446;6.792;2022-09-13T16:13:13;26.10;99.90
46492;DHT22;32206;51.446;6.792;2022-09-13T16:15:39;26.00;99.90
46492;DHT22;32206;51.446;6.792;2022-09-13T16:18:04;26.00;99.90
46492;DHT22;32206;51.446;6.792;2022-09-13T16:20:30;26.00;99.90
46492;DHT22;32206;51.446;6.792;2022-09-13T16:22:56;25.90;99.90
46492;DHT22;32206;51.446;6.792;2022-09-13T16:25:21;25.90;99.90
46492;DHT22;32206;51.446;6.792;2022-09-13T16:27:47;25.80;99.90
46492;DHT22;32206;51.446;6.792;2022-09-13T16:30:18;25.80;99.90
46492;DHT22;32206;51.446;6.792;2022-09-13T16:32:44;25.70;99.90
46492;DHT22;32206;51.446;6.792;2022-09-13T16:35:11;25.60;99.90
46492;DHT22;32206;51.446;6.792;2022-09-13T16:37:38;25.60;1.00
46492;DHT22;32206;51.446;6.792;2022-09-13T16:40:04;25.60;1.00
46492;DHT22;32206;51.446;6.792;2022-09-13T16:42:30;25.60;1.00
46492;DHT22;32206;51.446;6.792;2022-09-13T16:44:56;25.50;1.00
46492;DHT22;32206;51.446;6.792;2022-09-13T16:47:21;25.40;1.00
46492;DHT22;32206;51.446;6.792;2022-09-13T16:49:47;25.40;1.00
46492;DHT22;32206;51.446;6.792;2022-09-13T16:52:12;25.30;79.30
46492;DHT22;32206;51.446;6.792;2022-09-13T16:54:38;25.20;99.90
46492;DHT22;32206;51.446;6.792;2022-09-13T16:57:05;25.20;99.90
46492;DHT22;32206;51.446;6.792;2022-09-13T16:59:31;25.20;99.90
46492;DHT22;32206;51.446;6.792;2022-09-13T17:01:57;25.20;99.90
46492;DHT22;32206;51.446;6.792;2022-09-13T17:04:24;25.20;99.90
46492;DHT22;32206;51.446;6.792;2022-09-13T17:06:50;25.20;99.90
46492;DHT22;32206;51.446;6.792;2022-09-13T17:09:16;25.10;99.90
46492;DHT22;32206;51.446;6.792;2022-09-13T17:11:43;25.10;99.90
46492;DHT22;32206;51.446;6.792;2022-09-13T17:14:11;25.00;99.90
46492;DHT22;32206;51.446;6.792;2022-09-13T17:16:41;25.00;99.90
46492;DHT22;32206;51.446;6.792;2022-09-13T17:19:19;25.00;99.90
46492;DHT22;32206;51.446;6.792;2022-09-13T17:21:45;25.00;99.90
46492;DHT22;32206;51.446;6.792;2022-09-13T17:24:11;24.90;99.90
46492;DHT22;32206;51.446;6.792;2022-09-13T17:26:37;24.90;99.90
46492;DHT22;32206;51.446;6.792;2022-09-13T17:29:03;24.90;99.90
46492;DHT22;32206;51.446;6.792;2022-09-13T17:31:29;24.80;99.90
46492;DHT22;32206;51.446;6.792;2022-09-13T17:33:54;24.80;99.90
46492;DHT22;32206;51.446;6.792;2022-09-13T17:36:20;24.80;99.90
46492;DHT22;32206;51.446;6.792;2022-09-13T17:38:47;24.80;99.90
46492;DHT22;32206;51.446;6.792;2022-09-13T17:41:15;24.70;99.90
46492;DHT22;32206;51.446;6.792;2022-09-13T17:43:41;24.80;99.90
46492;DHT22;32206;51.446;6.792;2022-09-13T17:46:16;24.70;99.90
46492;DHT22;32206;51.446;6.792;2022-09-13T17:48:42;24.70;99.90
46492;DHT22;32206;51.446;6.792;2022-09-13T17:51:13;24.70;99.90
46492;DHT22;32206;51.446;6.792;2022-09-13T17:53:51;24.70;99.90
46492;DHT22;32206;51.446;6.792;2022-09-13T17:56:22;24.60;99.90
46492;DHT22;32206;51.446;6.792;2022-09-13T17:58:50;24.60;99.90
46492;DHT22;32206;51.446;6.792;2022-09-13T18:01:16;24.60;99.90
46492;DHT22;32206;51.446;6.792;2022-09-13T18:03:42;24.60;99.90
46492;DHT22;32206;51.446;6.792;2022-09-13T18:06:09;24.60;99.90
46492;DHT22;32206;51.446;6.792;2022-09-13T18:08:37;24.50;99.90
46492;DHT22;32206;51.446;6.792;2022-09-13T18:11:05;24.50;99.90
46492;DHT22;32206;51.446;6.792;2022-09-13T18:13:32;24.50;99.90
46492;DHT22;32206;51.446;6.792;2022-09-13T18:15:59;24.40;99.90
46492;DHT22;32206;51.446;6.792;2022-09-13T18:18:25;24.40;99.90
46492;DHT22;32206;51.446;6.792;2022-09-13T18:20:51;24.40;99.90
46492;DHT22;32206;51.446;6.792;2022-09-13T18:23:17;24.40;99.90
46492;DHT22;32206;51.446;6.792;2022-09-13T18:25:42;24.30;99.90
46492;DHT22;32206;51.446;6.792;2022-09-13T18:28:09;24.30;99.90
46492;DHT22;32206;51.446;6.792;2022-09-13T18:30:34;24.10;99.90
46492;DHT22;32206;51.446;6.792;2022-09-13T18:33:00;24.20;99.90
46492;DHT22;32206;51.446;6.792;2022-09-13T18:35:25;24.20;99.90
46492;DHT22;32206;51.446;6.792;2022-09-13T18:37:51;24.20;99.90
46492;DHT22;32206;51.446;6.792;2022-09-13T18:40:16;24.20;99.90
46492;DHT22;32206;51.446;6.792;2022-09-13T18:45:17;24.10;99.90
46492;DHT22;32206;51.446;6.792;2022-09-13T18:47:43;24.00;99.90
46492;DHT22;32206;51.446;6.792;2022-09-13T18:50:08;24.00;99.90
46492;DHT22;32206;51.446;6.792;2022-09-13T18:52:34;24.00;99.90
46492;DHT22;32206;51.446;6.792;2022-09-13T18:54:59;24.00;99.90
46492;DHT22;32206;51.446;6.792;2022-09-13T18:57:25;24.00;99.90
46492;DHT22;32206;51.446;6.792;2022-09-13T18:59:52;23.90;99.90
46492;DHT22;32206;51.446;6.792;2022-09-13T19:02:17;23.90;99.90
46492;DHT22;32206;51.446;6.792;2022-09-13T19:04:44;23.90;99.90
46492;DHT22;32206;51.446;6.792;2022-09-13T19:07:09;23.90;99.90
46492;DHT22;32206;51.446;6.792;2022-09-13T19:09:35;23.90;99.90